sensor_id;sensor_type;location;lat;lon;timestamp;P1;durP1;ratioP1;P2;durP2;ratioP2
14776;SDS011;7480;43.124;25.686;2023-07-02T00:01:48;7.43;;;6.63;;
14776;SDS011;7480;43.124;25.686;2023-07-02T00:04:15;6.68;;;6.03;;
14776;SDS011;7480;43.124;25.686;2023-07-02T00:06:43;7.20;;;6.50;;
14776;SDS011;7480;43.124;25.686;2023-07-02T00:09:10;8.60;;;6.25;;
14776;SDS011;7480;43.124;25.686;2023-07-02T00:11:41;9.30;;;6.28;;
14776;SDS011;7480;43.124;25.686;2023-07-02T00:14:10;6.60;;;5.47;;
14776;SDS011;7480;43.124;25.686;2023-07-02T00:16:37;6.60;;;5.88;;
14776;SDS011;7480;43.124;25.686;2023-07-02T00:19:05;6.80;;;6.10;;
14776;SDS011;7480;43.124;25.686;2023-07-02T00:21:32;6.95;;;5.80;;
14776;SDS011;7480;43.124;25.686;2023-07-02T00:23:59;6.25;;;5.65;;
14776;SDS011;7480;43.124;25.686;2023-07-02T00:26:27;7.53;;;6.73;;
14776;SDS011;7480;43.124;25.686;2023-07-02T00:28:54;6.97;;;5.60;;
14776;SDS011;7480;43.124;25.686;2023-07-02T00:31:22;7.75;;;6.45;;
14776;SDS011;7480;43.124;25.686;2023-07-02T00:33:49;6.77;;;6.13;;
14776;SDS011;7480;43.124;25.686;2023-07-02T00:36:17;6.57;;;5.97;;
14776;SDS011;7480;43.124;25.686;2023-07-02T00:38:44;6.90;;;6.30;;
14776;SDS011;7480;43.124;25.686;2023-07-02T00:41:12;6.57;;;5.90;;
14776;SDS011;7480;43.124;25.686;2023-07-02T00:43:39;7.40;;;6.50;;
14776;SDS011;7480;43.124;25.686;2023-07-02T00:46:16;7.45;;;6.47;;
14776;SDS011;7480;43.124;25.686;2023-07-02T00:48:50;9.07;;;7.03;;
14776;SDS011;7480;43.124;25.686;2023-07-02T00:51:18;7.27;;;6.57;;
14776;SDS011;7480;43.124;25.686;2023-07-02T00:53:47;8.10;;;6.77;;
14776;SDS011;7480;43.124;25.686;2023-07-02T00:56:15;7.00;;;6.30;;
14776;SDS011;7480;43.124;25.686;2023-07-02T00:58:43;8.87;;;6.50;;
14776;SDS011;7480;43.124;25.686;2023-07-02T01:01:19;7.00;;;6.35;;
14776;SDS011;7480;43.124;25.686;2023-07-02T01:04:02;7.13;;;6.10;;
14776;SDS011;7480;43.124;25.686;2023-07-02T01:06:34;7.03;;;6.33;;
14776;SDS011;7480;43.124;25.686;2023-07-02T01:09:02;8.13;;;6.60;;
14776;SDS011;7480;43.124;25.686;2023-07-02T01:11:34;6.67;;;6.07;;
14776;SDS011;7480;43.124;25.686;2023-07-02T01:14:08;7.60;;;6.90;;
14776;SDS011;7480;43.124;25.686;2023-07-02T01:16:38;8.45;;;5.88;;
14776;SDS011;7480;43.124;25.686;2023-07-02T01:19:21;7.67;;;6.17;;
14776;SDS011;7480;43.124;25.686;2023-07-02T01:21:52;7.37;;;6.40;;
14776;SDS011;7480;43.124;25.686;2023-07-02T01:24:19;7.77;;;6.47;;
14776;SDS011;7480;43.124;25.686;2023-07-02T01:26:47;7.00;;;6.30;;
14776;SDS011;7480;43.124;25.686;2023-07-02T01:31:45;7.37;;;6.67;;
14776;SDS011;7480;43.124;25.686;2023-07-02T01:34:13;7.07;;;6.37;;
14776;SDS011;7480;43.124;25.686;2023-07-02T01:36:40;6.60;;;5.90;;
14776;SDS011;7480;43.124;25.686;2023-07-02T01:39:07;7.20;;;6.50;;
14776;SDS011;7480;43.124;25.686;2023-07-02T01:41:50;8.93;;;6.10;;
14776;SDS011;7480;43.124;25.686;2023-07-02T01:44:18;7.43;;;6.60;;
14776;SDS011;7480;43.124;25.686;2023-07-02T01:46:46;7.40;;;6.40;;
14776;SDS011;7480;43.124;25.686;2023-07-02T01:49:16;6.77;;;6.13;;
14776;SDS011;7480;43.124;25.686;2023-07-02T01:51:53;6.97;;;6.27;;
14776;SDS011;7480;43.124;25.686;2023-07-02T01:54:21;6.90;;;6.27;;
14776;SDS011;7480;43.124;25.686;2023-07-02T01:56:49;7.57;;;6.87;;
14776;SDS011;7480;43.124;25.686;2023-07-02T01:59:15;7.30;;;6.50;;
14776;SDS011;7480;43.124;25.686;2023-07-02T02:01:45;7.93;;;6.60;;
14776;SDS011;7480;43.124;25.686;2023-07-02T02:04:12;7.17;;;6.47;;
14776;SDS011;7480;43.124;25.686;2023-07-02T02:06:39;7.87;;;6.93;;
14776;SDS011;7480;43.124;25.686;2023-07-02T02:09:07;7.87;;;6.80;;
14776;SDS011;7480;43.124;25.686;2023-07-02T02:11:38;9.63;;;6.70;;
14776;SDS011;7480;43.124;25.686;2023-07-02T02:14:05;9.60;;;7.50;;
14776;SDS011;7480;43.124;25.686;2023-07-02T02:16:32;9.03;;;7.50;;
14776;SDS011;7480;43.124;25.686;2023-07-02T02:19:02;8.17;;;7.37;;
14776;SDS011;7480;43.124;25.686;2023-07-02T02:21:29;9.47;;;8.10;;
14776;SDS011;7480;43.124;25.686;2023-07-02T02:23:56;9.50;;;6.77;;
14776;SDS011;7480;43.124;25.686;2023-07-02T02:26:23;7.57;;;6.77;;
14776;SDS011;7480;43.124;25.686;2023-07-02T02:28:51;8.20;;;7.40;;
14776;SDS011;7480;43.124;25.686;2023-07-02T02:31:18;8.13;;;7.20;;
14776;SDS011;7480;43.124;25.686;2023-07-02T02:33:45;8.80;;;7.90;;
14776;SDS011;7480;43.124;25.686;2023-07-02T02:36:12;11.77;;;7.73;;
14776;SDS011;7480;43.124;25.686;2023-07-02T02:38:39;9.87;;;8.50;;
14776;SDS011;7480;43.124;25.686;2023-07-02T02:41:06;8.80;;;7.90;;
14776;SDS011;7480;43.124;25.686;2023-07-02T02:43:34;9.20;;;8.23;;
14776;SDS011;7480;43.124;25.686;2023-07-02T02:46:01;11.10;;;8.87;;
14776;SDS011;7480;43.124;25.686;2023-07-02T02:48:28;10.47;;;8.70;;
14776;SDS011;7480;43.124;25.686;2023-07-02T02:50:55;12.77;;;9.13;;
14776;SDS011;7480;43.124;25.686;2023-07-02T02:53:21;10.07;;;9.07;;
14776;SDS011;7480;43.124;25.686;2023-07-02T02:55:48;9.23;;;8.27;;
14776;SDS011;7480;43.124;25.686;2023-07-02T02:58:15;9.10;;;8.20;;
14776;SDS011;7480;43.124;25.686;2023-07-02T03:00:41;8.93;;;8.13;;
14776;SDS011;7480;43.124;25.686;2023-07-02T03:03:12;8.60;;;7.80;;
14776;SDS011;7480;43.124;25.686;2023-07-02T03:05:40;8.30;;;7.50;;
14776;SDS011;7480;43.124;25.686;2023-07-02T03:08:07;8.60;;;7.57;;
14776;SDS011;7480;43.124;25.686;2023-07-02T03:10:34;8.50;;;7.70;;
14776;SDS011;7480;43.124;25.686;2023-07-02T03:13:00;8.00;;;7.20;;
14776;SDS011;7480;43.124;25.686;2023-07-02T03:15:27;7.90;;;7.20;;
14776;SDS011;7480;43.124;25.686;2023-07-02T03:17:54;8.20;;;7.50;;
14776;SDS011;7480;43.124;25.686;2023-07-02T03:20:21;8.03;;;7.00;;
14776;SDS011;7480;43.124;25.686;2023-07-02T03:22:47;8.53;;;7.63;;
14776;SDS011;7480;43.124;25.686;2023-07-02T03:25:14;8.70;;;7.57;;
14776;SDS011;7480;43.124;25.686;2023-07-02T03:27:42;8.23;;;7.50;;
14776;SDS011;7480;43.124;25.686;2023-07-02T03:30:09;8.67;;;7.53;;
14776;SDS011;7480;43.124;25.686;2023-07-02T03:32:35;8.17;;;7.33;;
14776;SDS011;7480;43.124;25.686;2023-07-02T03:35:02;7.97;;;7.20;;
14776;SDS011;7480;43.124;25.686;2023-07-02T03:37:29;8.53;;;7.63;;
14776;SDS011;7480;43.124;25.686;2023-07-02T03:39:57;7.80;;;7.00;;
14776;SDS011;7480;43.124;25.686;2023-07-02T03:42:25;8.43;;;7.63;;
14776;SDS011;7480;43.124;25.686;2023-07-02T03:44:51;8.70;;;7.77;;
14776;SDS011;7480;43.124;25.686;2023-07-02T03:47:18;7.97;;;7.28;;
14776;SDS011;7480;43.124;25.686;2023-07-02T03:49:46;8.27;;;7.40;;
14776;SDS011;7480;43.124;25.686;2023-07-02T03:52:13;8.48;;;6.95;;
14776;SDS011;7480;43.124;25.686;2023-07-02T03:54:39;8.02;;;7.07;;
14776;SDS011;7480;43.124;25.686;2023-07-02T03:57:06;7.40;;;6.63;;
14776;SDS011;7480;43.124;25.686;2023-07-02T03:59:33;8.05;;;7.25;;
14776;SDS011;7480;43.124;25.686;2023-07-02T04:02:00;8.43;;;7.55;;
14776;SDS011;7480;43.124;25.686;2023-07-02T04:04:27;7.70;;;7.00;;
14776;SDS011;7480;43.124;25.686;2023-07-02T04:06:54;9.35;;;6.78;;
14776;SDS011;7480;43.124;25.686;2023-07-02T04:09:21;8.63;;;6.68;;
14776;SDS011;7480;43.124;25.686;2023-07-02T04:11:47;7.78;;;7.05;;
14776;SDS011;7480;43.124;25.686;2023-07-02T04:14:14;7.75;;;7.15;;
14776;SDS011;7480;43.124;25.686;2023-07-02T04:16:42;7.18;;;6.53;;
14776;SDS011;7480;43.124;25.686;2023-07-02T04:19:11;10.80;;;7.68;;
14776;SDS011;7480;43.124;25.686;2023-07-02T04:21:38;8.20;;;7.28;;
14776;SDS011;7480;43.124;25.686;2023-07-02T04:24:05;9.20;;;7.30;;
14776;SDS011;7480;43.124;25.686;2023-07-02T04:26:32;8.23;;;7.47;;
14776;SDS011;7480;43.124;25.686;2023-07-02T04:29:19;7.07;;;6.47;;
14776;SDS011;7480;43.124;25.686;2023-07-02T04:31:46;7.28;;;6.57;;
14776;SDS011;7480;43.124;25.686;2023-07-02T04:34:13;8.13;;;7.38;;
14776;SDS011;7480;43.124;25.686;2023-07-02T04:36:39;7.40;;;6.70;;
14776;SDS011;7480;43.124;25.686;2023-07-02T04:39:07;8.10;;;6.65;;
14776;SDS011;7480;43.124;25.686;2023-07-02T04:41:34;7.65;;;6.95;;
14776;SDS011;7480;43.124;25.686;2023-07-02T04:44:01;7.88;;;6.60;;
14776;SDS011;7480;43.124;25.686;2023-07-02T04:46:28;9.63;;;6.88;;
14776;SDS011;7480;43.124;25.686;2023-07-02T04:48:55;7.95;;;7.10;;
14776;SDS011;7480;43.124;25.686;2023-07-02T04:51:21;7.55;;;6.50;;
14776;SDS011;7480;43.124;25.686;2023-07-02T04:53:48;7.90;;;7.10;;
14776;SDS011;7480;43.124;25.686;2023-07-02T04:56:15;9.05;;;8.18;;
14776;SDS011;7480;43.124;25.686;2023-07-02T04:58:41;9.60;;;8.07;;
14776;SDS011;7480;43.124;25.686;2023-07-02T05:01:08;8.52;;;7.72;;
14776;SDS011;7480;43.124;25.686;2023-07-02T05:03:36;9.38;;;8.48;;
14776;SDS011;7480;43.124;25.686;2023-07-02T05:06:03;10.05;;;8.50;;
14776;SDS011;7480;43.124;25.686;2023-07-02T05:08:30;8.85;;;8.05;;
14776;SDS011;7480;43.124;25.686;2023-07-02T05:10:57;9.00;;;8.27;;
14776;SDS011;7480;43.124;25.686;2023-07-02T05:13:23;8.73;;;7.93;;
14776;SDS011;7480;43.124;25.686;2023-07-02T05:15:50;9.40;;;8.40;;
14776;SDS011;7480;43.124;25.686;2023-07-02T05:18:17;8.65;;;7.85;;
14776;SDS011;7480;43.124;25.686;2023-07-02T05:20:43;8.98;;;8.18;;
14776;SDS011;7480;43.124;25.686;2023-07-02T05:23:10;8.43;;;7.70;;
14776;SDS011;7480;43.124;25.686;2023-07-02T05:25:37;9.00;;;8.13;;
14776;SDS011;7480;43.124;25.686;2023-07-02T05:28:04;9.13;;;8.10;;
14776;SDS011;7480;43.124;25.686;2023-07-02T05:30:31;9.20;;;8.30;;
14776;SDS011;7480;43.124;25.686;2023-07-02T05:32:57;10.00;;;8.27;;
14776;SDS011;7480;43.124;25.686;2023-07-02T05:35:24;8.73;;;7.93;;
14776;SDS011;7480;43.124;25.686;2023-07-02T05:37:51;8.43;;;7.63;;
14776;SDS011;7480;43.124;25.686;2023-07-02T05:40:17;9.05;;;8.05;;
14776;SDS011;7480;43.124;25.686;2023-07-02T05:42:44;8.27;;;7.47;;
14776;SDS011;7480;43.124;25.686;2023-07-02T05:45:11;8.50;;;7.43;;
14776;SDS011;7480;43.124;25.686;2023-07-02T05:47:37;8.45;;;7.63;;
14776;SDS011;7480;43.124;25.686;2023-07-02T05:50:05;8.88;;;8.00;;
14776;SDS011;7480;43.124;25.686;2023-07-02T05:52:33;8.35;;;7.60;;
14776;SDS011;7480;43.124;25.686;2023-07-02T05:54:59;8.63;;;7.82;;
14776;SDS011;7480;43.124;25.686;2023-07-02T05:57:26;8.77;;;7.95;;
14776;SDS011;7480;43.124;25.686;2023-07-02T05:59:53;9.50;;;8.32;;
14776;SDS011;7480;43.124;25.686;2023-07-02T06:02:19;8.93;;;8.13;;
14776;SDS011;7480;43.124;25.686;2023-07-02T06:04:46;9.85;;;8.95;;
14776;SDS011;7480;43.124;25.686;2023-07-02T06:07:13;14.60;;;9.05;;
14776;SDS011;7480;43.124;25.686;2023-07-02T06:09:40;8.55;;;7.78;;
14776;SDS011;7480;43.124;25.686;2023-07-02T06:12:06;8.20;;;7.50;;
14776;SDS011;7480;43.124;25.686;2023-07-02T06:14:33;9.30;;;8.00;;
14776;SDS011;7480;43.124;25.686;2023-07-02T06:17:00;8.98;;;8.20;;
14776;SDS011;7480;43.124;25.686;2023-07-02T06:19:27;8.70;;;8.00;;
14776;SDS011;7480;43.124;25.686;2023-07-02T06:21:54;8.77;;;7.93;;
14776;SDS011;7480;43.124;25.686;2023-07-02T06:24:20;8.50;;;7.70;;
14776;SDS011;7480;43.124;25.686;2023-07-02T06:26:47;8.20;;;7.40;;
14776;SDS011;7480;43.124;25.686;2023-07-02T06:29:14;8.27;;;7.47;;
14776;SDS011;7480;43.124;25.686;2023-07-02T06:31:40;7.93;;;7.13;;
14776;SDS011;7480;43.124;25.686;2023-07-02T06:34:07;8.15;;;7.45;;
14776;SDS011;7480;43.124;25.686;2023-07-02T06:36:35;10.60;;;7.78;;
14776;SDS011;7480;43.124;25.686;2023-07-02T06:39:01;7.38;;;6.40;;
14776;SDS011;7480;43.124;25.686;2023-07-02T06:41:28;7.75;;;6.95;;
14776;SDS011;7480;43.124;25.686;2023-07-02T06:43:55;8.05;;;6.93;;
14776;SDS011;7480;43.124;25.686;2023-07-02T06:46:27;7.63;;;6.93;;
14776;SDS011;7480;43.124;25.686;2023-07-02T06:48:54;8.32;;;6.93;;
14776;SDS011;7480;43.124;25.686;2023-07-02T06:51:21;8.27;;;6.30;;
14776;SDS011;7480;43.124;25.686;2023-07-02T06:53:48;6.95;;;5.93;;
14776;SDS011;7480;43.124;25.686;2023-07-02T06:56:15;8.90;;;7.35;;
14776;SDS011;7480;43.124;25.686;2023-07-02T06:58:42;7.55;;;6.75;;
14776;SDS011;7480;43.124;25.686;2023-07-02T07:01:09;7.95;;;6.68;;
14776;SDS011;7480;43.124;25.686;2023-07-02T07:03:36;7.60;;;6.53;;
14776;SDS011;7480;43.124;25.686;2023-07-02T07:06:03;8.10;;;6.45;;
14776;SDS011;7480;43.124;25.686;2023-07-02T07:08:37;7.88;;;6.97;;
14776;SDS011;7480;43.124;25.686;2023-07-02T07:11:05;7.25;;;6.55;;
14776;SDS011;7480;43.124;25.686;2023-07-02T07:13:32;7.28;;;6.57;;
14776;SDS011;7480;43.124;25.686;2023-07-02T07:15:59;7.10;;;6.25;;
14776;SDS011;7480;43.124;25.686;2023-07-02T07:18:25;7.82;;;6.18;;
14776;SDS011;7480;43.124;25.686;2023-07-02T07:20:55;6.45;;;5.63;;
14776;SDS011;7480;43.124;25.686;2023-07-02T07:23:22;7.50;;;6.03;;
14776;SDS011;7480;43.124;25.686;2023-07-02T07:25:49;8.27;;;6.15;;
14776;SDS011;7480;43.124;25.686;2023-07-02T07:28:15;6.43;;;5.82;;
14776;SDS011;7480;43.124;25.686;2023-07-02T07:30:43;7.47;;;6.55;;
14776;SDS011;7480;43.124;25.686;2023-07-02T07:33:10;8.45;;;6.60;;
14776;SDS011;7480;43.124;25.686;2023-07-02T07:35:36;7.25;;;6.10;;
14776;SDS011;7480;43.124;25.686;2023-07-02T07:38:03;6.78;;;6.15;;
14776;SDS011;7480;43.124;25.686;2023-07-02T07:40:30;8.60;;;6.47;;
14776;SDS011;7480;43.124;25.686;2023-07-02T07:42:56;7.70;;;6.80;;
14776;SDS011;7480;43.124;25.686;2023-07-02T07:45:23;8.40;;;7.55;;
14776;SDS011;7480;43.124;25.686;2023-07-02T07:47:50;7.75;;;6.93;;
14776;SDS011;7480;43.124;25.686;2023-07-02T07:50:17;9.02;;;7.57;;
14776;SDS011;7480;43.124;25.686;2023-07-02T07:52:43;8.85;;;7.25;;
14776;SDS011;7480;43.124;25.686;2023-07-02T07:55:10;9.77;;;7.50;;
14776;SDS011;7480;43.124;25.686;2023-07-02T07:57:37;8.32;;;7.53;;
14776;SDS011;7480;43.124;25.686;2023-07-02T08:00:04;12.23;;;7.95;;
14776;SDS011;7480;43.124;25.686;2023-07-02T08:02:34;9.88;;;7.70;;
14776;SDS011;7480;43.124;25.686;2023-07-02T08:05:01;11.15;;;7.93;;
14776;SDS011;7480;43.124;25.686;2023-07-02T08:07:29;8.02;;;7.05;;
14776;SDS011;7480;43.124;25.686;2023-07-02T08:09:56;8.05;;;7.25;;
14776;SDS011;7480;43.124;25.686;2023-07-02T08:12:23;9.18;;;8.07;;
14776;SDS011;7480;43.124;25.686;2023-07-02T08:14:50;9.07;;;7.38;;
14776;SDS011;7480;43.124;25.686;2023-07-02T08:17:17;7.75;;;7.05;;
14776;SDS011;7480;43.124;25.686;2023-07-02T08:19:43;10.35;;;7.97;;
14776;SDS011;7480;43.124;25.686;2023-07-02T08:22:10;9.80;;;8.02;;
14776;SDS011;7480;43.124;25.686;2023-07-02T08:24:37;8.77;;;7.93;;
14776;SDS011;7480;43.124;25.686;2023-07-02T08:27:03;10.43;;;7.68;;
14776;SDS011;7480;43.124;25.686;2023-07-02T08:29:31;9.00;;;7.97;;
14776;SDS011;7480;43.124;25.686;2023-07-02T08:31:58;11.00;;;8.35;;
14776;SDS011;7480;43.124;25.686;2023-07-02T08:34:25;11.23;;;8.10;;
14776;SDS011;7480;43.124;25.686;2023-07-02T08:36:52;8.43;;;7.50;;
14776;SDS011;7480;43.124;25.686;2023-07-02T08:39:18;9.00;;;7.97;;
14776;SDS011;7480;43.124;25.686;2023-07-02T08:41:46;9.15;;;8.15;;
14776;SDS011;7480;43.124;25.686;2023-07-02T08:44:14;10.13;;;8.32;;
14776;SDS011;7480;43.124;25.686;2023-07-02T08:46:44;8.57;;;7.57;;
14776;SDS011;7480;43.124;25.686;2023-07-02T08:49:11;9.02;;;8.13;;
14776;SDS011;7480;43.124;25.686;2023-07-02T08:51:38;9.20;;;7.65;;
14776;SDS011;7480;43.124;25.686;2023-07-02T08:54:04;8.80;;;8.00;;
14776;SDS011;7480;43.124;25.686;2023-07-02T08:56:31;8.32;;;7.15;;
14776;SDS011;7480;43.124;25.686;2023-07-02T08:58:58;8.90;;;8.00;;
14776;SDS011;7480;43.124;25.686;2023-07-02T09:01:24;8.95;;;7.85;;
14776;SDS011;7480;43.124;25.686;2023-07-02T09:03:51;8.70;;;7.68;;
14776;SDS011;7480;43.124;25.686;2023-07-02T09:06:18;9.40;;;7.95;;
14776;SDS011;7480;43.124;25.686;2023-07-02T09:08:45;8.68;;;7.22;;
14776;SDS011;7480;43.124;25.686;2023-07-02T09:11:12;8.55;;;7.68;;
14776;SDS011;7480;43.124;25.686;2023-07-02T09:13:42;8.43;;;7.57;;
14776;SDS011;7480;43.124;25.686;2023-07-02T09:16:22;9.70;;;7.25;;
14776;SDS011;7480;43.124;25.686;2023-07-02T09:19:04;8.38;;;7.57;;
14776;SDS011;7480;43.124;25.686;2023-07-02T09:21:38;8.75;;;7.85;;
14776;SDS011;7480;43.124;25.686;2023-07-02T09:24:26;8.30;;;7.47;;
14776;SDS011;7480;43.124;25.686;2023-07-02T09:26:59;8.95;;;7.95;;
14776;SDS011;7480;43.124;25.686;2023-07-02T09:29:28;9.05;;;7.75;;
14776;SDS011;7480;43.124;25.686;2023-07-02T09:31:56;8.15;;;7.35;;
14776;SDS011;7480;43.124;25.686;2023-07-02T09:34:36;11.25;;;9.05;;
14776;SDS011;7480;43.124;25.686;2023-07-02T09:37:04;10.18;;;8.48;;
14776;SDS011;7480;43.124;25.686;2023-07-02T09:39:32;8.77;;;7.88;;
14776;SDS011;7480;43.124;25.686;2023-07-02T09:42:00;11.95;;;8.38;;
14776;SDS011;7480;43.124;25.686;2023-07-02T09:44:29;9.50;;;7.68;;
14776;SDS011;7480;43.124;25.686;2023-07-02T09:47:09;10.50;;;7.78;;
14776;SDS011;7480;43.124;25.686;2023-07-02T09:49:37;9.75;;;7.60;;
14776;SDS011;7480;43.124;25.686;2023-07-02T09:52:06;7.93;;;6.30;;
14776;SDS011;7480;43.124;25.686;2023-07-02T09:54:34;7.05;;;6.35;;
14776;SDS011;7480;43.124;25.686;2023-07-02T09:57:01;9.43;;;6.75;;
14776;SDS011;7480;43.124;25.686;2023-07-02T09:59:29;8.13;;;7.20;;
14776;SDS011;7480;43.124;25.686;2023-07-02T10:01:56;6.97;;;6.00;;
14776;SDS011;7480;43.124;25.686;2023-07-02T10:04:23;6.65;;;5.60;;
14776;SDS011;7480;43.124;25.686;2023-07-02T10:06:54;7.63;;;6.28;;
14776;SDS011;7480;43.124;25.686;2023-07-02T10:09:36;6.75;;;5.97;;
14776;SDS011;7480;43.124;25.686;2023-07-02T10:12:24;6.82;;;4.80;;
14776;SDS011;7480;43.124;25.686;2023-07-02T10:14:52;6.90;;;5.43;;
14776;SDS011;7480;43.124;25.686;2023-07-02T10:20:01;5.55;;;4.22;;
14776;SDS011;7480;43.124;25.686;2023-07-02T10:22:43;6.63;;;5.00;;
14776;SDS011;7480;43.124;25.686;2023-07-02T10:25:10;6.97;;;4.47;;
14776;SDS011;7480;43.124;25.686;2023-07-02T10:27:38;6.95;;;5.07;;
14776;SDS011;7480;43.124;25.686;2023-07-02T10:30:06;9.30;;;5.22;;
14776;SDS011;7480;43.124;25.686;2023-07-02T10:32:34;5.28;;;4.70;;
14776;SDS011;7480;43.124;25.686;2023-07-02T10:35:12;8.32;;;5.00;;
14776;SDS011;7480;43.124;25.686;2023-07-02T10:37:40;6.60;;;4.93;;
14776;SDS011;7480;43.124;25.686;2023-07-02T10:40:07;5.53;;;4.95;;
14776;SDS011;7480;43.124;25.686;2023-07-02T10:42:48;6.28;;;4.82;;
14776;SDS011;7480;43.124;25.686;2023-07-02T10:45:16;8.10;;;5.32;;
14776;SDS011;7480;43.124;25.686;2023-07-02T10:47:43;8.50;;;5.30;;
14776;SDS011;7480;43.124;25.686;2023-07-02T10:50:17;4.97;;;4.35;;
14776;SDS011;7480;43.124;25.686;2023-07-02T10:52:45;6.25;;;4.50;;
14776;SDS011;7480;43.124;25.686;2023-07-02T10:55:18;5.38;;;4.32;;
14776;SDS011;7480;43.124;25.686;2023-07-02T10:57:47;6.70;;;4.72;;
14776;SDS011;7480;43.124;25.686;2023-07-02T11:00:14;6.53;;;4.72;;
14776;SDS011;7480;43.124;25.686;2023-07-02T11:02:41;6.50;;;4.95;;
14776;SDS011;7480;43.124;25.686;2023-07-02T11:05:08;6.32;;;4.65;;
14776;SDS011;7480;43.124;25.686;2023-07-02T11:07:41;6.57;;;4.75;;
14776;SDS011;7480;43.124;25.686;2023-07-02T11:10:09;4.95;;;4.30;;
14776;SDS011;7480;43.124;25.686;2023-07-02T11:12:36;5.35;;;4.68;;
14776;SDS011;7480;43.124;25.686;2023-07-02T11:15:07;6.40;;;4.75;;
14776;SDS011;7480;43.124;25.686;2023-07-02T11:17:37;7.43;;;5.22;;
14776;SDS011;7480;43.124;25.686;2023-07-02T11:20:06;6.57;;;5.32;;
14776;SDS011;7480;43.124;25.686;2023-07-02T11:22:37;5.38;;;4.43;;
14776;SDS011;7480;43.124;25.686;2023-07-02T11:25:17;7.32;;;5.00;;
14776;SDS011;7480;43.124;25.686;2023-07-02T11:27:46;6.57;;;5.03;;
14776;SDS011;7480;43.124;25.686;2023-07-02T11:30:13;7.55;;;5.13;;
14776;SDS011;7480;43.124;25.686;2023-07-02T11:32:50;5.72;;;4.65;;
14776;SDS011;7480;43.124;25.686;2023-07-02T11:35:18;7.55;;;4.75;;
14776;SDS011;7480;43.124;25.686;2023-07-02T11:37:45;6.25;;;5.10;;
14776;SDS011;7480;43.124;25.686;2023-07-02T11:40:12;6.22;;;4.97;;
14776;SDS011;7480;43.124;25.686;2023-07-02T11:42:40;6.85;;;5.32;;
14776;SDS011;7480;43.124;25.686;2023-07-02T11:45:07;6.50;;;4.95;;
14776;SDS011;7480;43.124;25.686;2023-07-02T11:47:34;6.10;;;4.95;;
14776;SDS011;7480;43.124;25.686;2023-07-02T11:50:01;5.75;;;4.93;;
14776;SDS011;7480;43.124;25.686;2023-07-02T11:52:47;6.72;;;4.97;;
14776;SDS011;7480;43.124;25.686;2023-07-02T11:55:14;5.85;;;4.95;;
14776;SDS011;7480;43.124;25.686;2023-07-02T11:57:42;6.13;;;5.28;;
14776;SDS011;7480;43.124;25.686;2023-07-02T12:00:08;6.32;;;5.00;;
14776;SDS011;7480;43.124;25.686;2023-07-02T12:02:35;8.27;;;5.28;;
14776;SDS011;7480;43.124;25.686;2023-07-02T12:05:02;6.60;;;5.90;;
14776;SDS011;7480;43.124;25.686;2023-07-02T12:07:33;6.22;;;5.43;;
14776;SDS011;7480;43.124;25.686;2023-07-02T12:10:00;5.82;;;5.32;;
14776;SDS011;7480;43.124;25.686;2023-07-02T12:12:27;6.30;;;5.65;;
14776;SDS011;7480;43.124;25.686;2023-07-02T12:14:54;7.30;;;5.45;;
14776;SDS011;7480;43.124;25.686;2023-07-02T12:17:20;7.07;;;5.50;;
14776;SDS011;7480;43.124;25.686;2023-07-02T12:19:47;7.57;;;5.25;;
14776;SDS011;7480;43.124;25.686;2023-07-02T12:22:14;5.32;;;4.82;;
14776;SDS011;7480;43.124;25.686;2023-07-02T12:24:44;7.07;;;5.47;;
14776;SDS011;7480;43.124;25.686;2023-07-02T12:27:10;6.78;;;5.15;;
14776;SDS011;7480;43.124;25.686;2023-07-02T12:29:37;6.03;;;5.43;;
14776;SDS011;7480;43.124;25.686;2023-07-02T12:32:04;5.95;;;5.03;;
14776;SDS011;7480;43.124;25.686;2023-07-02T12:34:31;6.20;;;5.00;;
14776;SDS011;7480;43.124;25.686;2023-07-02T12:36:58;5.63;;;5.13;;
14776;SDS011;7480;43.124;25.686;2023-07-02T12:39:25;6.03;;;4.82;;
14776;SDS011;7480;43.124;25.686;2023-07-02T12:41:51;7.32;;;5.47;;
14776;SDS011;7480;43.124;25.686;2023-07-02T12:44:18;5.82;;;5.22;;
14776;SDS011;7480;43.124;25.686;2023-07-02T12:46:45;6.55;;;5.57;;
14776;SDS011;7480;43.124;25.686;2023-07-02T12:49:11;8.55;;;5.47;;
14776;SDS011;7480;43.124;25.686;2023-07-02T12:51:39;6.72;;;5.43;;
14776;SDS011;7480;43.124;25.686;2023-07-02T12:54:06;5.35;;;4.85;;
14776;SDS011;7480;43.124;25.686;2023-07-02T12:56:32;6.40;;;5.30;;
14776;SDS011;7480;43.124;25.686;2023-07-02T12:59:01;6.72;;;5.35;;
14776;SDS011;7480;43.124;25.686;2023-07-02T13:01:28;5.95;;;5.35;;
14776;SDS011;7480;43.124;25.686;2023-07-02T13:03:55;10.13;;;5.95;;
14776;SDS011;7480;43.124;25.686;2023-07-02T13:06:22;6.28;;;5.28;;
14776;SDS011;7480;43.124;25.686;2023-07-02T13:08:48;7.55;;;5.78;;
14776;SDS011;7480;43.124;25.686;2023-07-02T13:11:15;6.82;;;6.10;;
14776;SDS011;7480;43.124;25.686;2023-07-02T13:13:42;7.32;;;5.95;;
14776;SDS011;7480;43.124;25.686;2023-07-02T13:16:08;6.55;;;5.68;;
14776;SDS011;7480;43.124;25.686;2023-07-02T13:18:35;6.57;;;5.20;;
14776;SDS011;7480;43.124;25.686;2023-07-02T13:21:02;7.72;;;5.75;;
14776;SDS011;7480;43.124;25.686;2023-07-02T13:23:28;6.88;;;6.00;;
14776;SDS011;7480;43.124;25.686;2023-07-02T13:25:55;6.43;;;5.30;;
14776;SDS011;7480;43.124;25.686;2023-07-02T13:28:22;7.03;;;6.32;;
14776;SDS011;7480;43.124;25.686;2023-07-02T13:30:49;7.13;;;5.80;;
14776;SDS011;7480;43.124;25.686;2023-07-02T13:33:16;8.10;;;5.50;;
14776;SDS011;7480;43.124;25.686;2023-07-02T13:35:43;8.95;;;5.78;;
14776;SDS011;7480;43.124;25.686;2023-07-02T13:38:10;7.10;;;5.80;;
14776;SDS011;7480;43.124;25.686;2023-07-02T13:40:36;6.65;;;5.93;;
14776;SDS011;7480;43.124;25.686;2023-07-02T13:43:03;5.85;;;4.88;;
14776;SDS011;7480;43.124;25.686;2023-07-02T13:45:30;6.43;;;5.22;;
14776;SDS011;7480;43.124;25.686;2023-07-02T13:47:57;6.97;;;6.28;;
14776;SDS011;7480;43.124;25.686;2023-07-02T13:50:23;6.63;;;5.95;;
14776;SDS011;7480;43.124;25.686;2023-07-02T13:52:50;7.07;;;5.72;;
14776;SDS011;7480;43.124;25.686;2023-07-02T13:55:17;7.22;;;5.72;;
14776;SDS011;7480;43.124;25.686;2023-07-02T13:57:43;7.70;;;6.55;;
14776;SDS011;7480;43.124;25.686;2023-07-02T14:00:10;8.20;;;6.30;;
14776;SDS011;7480;43.124;25.686;2023-07-02T14:02:37;6.47;;;5.82;;
14776;SDS011;7480;43.124;25.686;2023-07-02T14:05:04;7.35;;;6.60;;
14776;SDS011;7480;43.124;25.686;2023-07-02T14:07:31;7.28;;;6.50;;
14776;SDS011;7480;43.124;25.686;2023-07-02T14:09:58;7.07;;;6.22;;
14776;SDS011;7480;43.124;25.686;2023-07-02T14:12:25;6.65;;;5.90;;
14776;SDS011;7480;43.124;25.686;2023-07-02T14:14:51;8.50;;;6.30;;
14776;SDS011;7480;43.124;25.686;2023-07-02T14:17:18;6.82;;;6.13;;
14776;SDS011;7480;43.124;25.686;2023-07-02T14:19:45;10.27;;;6.18;;
14776;SDS011;7480;43.124;25.686;2023-07-02T14:22:12;6.78;;;6.00;;
14776;SDS011;7480;43.124;25.686;2023-07-02T14:24:38;7.43;;;6.63;;
14776;SDS011;7480;43.124;25.686;2023-07-02T14:27:05;6.85;;;5.95;;
14776;SDS011;7480;43.124;25.686;2023-07-02T14:29:32;8.15;;;7.00;;
14776;SDS011;7480;43.124;25.686;2023-07-02T14:31:59;6.68;;;5.90;;
14776;SDS011;7480;43.124;25.686;2023-07-02T14:34:29;7.40;;;6.65;;
14776;SDS011;7480;43.124;25.686;2023-07-02T14:36:56;7.50;;;6.18;;
14776;SDS011;7480;43.124;25.686;2023-07-02T14:39:24;9.93;;;6.85;;
14776;SDS011;7480;43.124;25.686;2023-07-02T14:41:51;7.70;;;6.90;;
14776;SDS011;7480;43.124;25.686;2023-07-02T14:44:18;6.85;;;6.15;;
14776;SDS011;7480;43.124;25.686;2023-07-02T14:46:44;7.00;;;6.13;;
14776;SDS011;7480;43.124;25.686;2023-07-02T14:49:11;7.85;;;6.28;;
14776;SDS011;7480;43.124;25.686;2023-07-02T14:51:38;7.88;;;7.07;;
14776;SDS011;7480;43.124;25.686;2023-07-02T14:54:04;8.50;;;6.55;;
14776;SDS011;7480;43.124;25.686;2023-07-02T14:56:33;8.32;;;6.40;;
14776;SDS011;7480;43.124;25.686;2023-07-02T14:59:02;9.70;;;6.30;;